sensor_id;sensor_type;location;lat;lon;timestamp;P1;durP1;ratioP1;P2;durP2;ratioP2
37107;SDS011;23019;49.300;6.846;2022-08-19T00:01:18;4.65;;;4.35;;
37107;SDS011;23019;49.300;6.846;2022-08-19T00:03:19;4.65;;;4.45;;
37107;SDS011;23019;49.300;6.846;2022-08-19T00:05:20;4.60;;;4.38;;
37107;SDS011;23019;49.300;6.846;2022-08-19T00:07:22;5.00;;;4.32;;
37107;SDS011;23019;49.300;6.846;2022-08-19T00:09:23;5.45;;;5.15;;
37107;SDS011;23019;49.300;6.846;2022-08-19T00:11:24;5.28;;;5.00;;
37107;SDS011;23019;49.300;6.846;2022-08-19T00:13:27;5.25;;;4.95;;
37107;SDS011;23019;49.300;6.846;2022-08-19T00:15:28;6.05;;;5.68;;
37107;SDS011;23019;49.300;6.846;2022-08-19T00:17:29;4.75;;;4.55;;
37107;SDS011;23019;49.300;6.846;2022-08-19T00:19:30;5.72;;;5.30;;
37107;SDS011;23019;49.300;6.846;2022-08-19T00:21:31;5.07;;;4.68;;
37107;SDS011;23019;49.300;6.846;2022-08-19T00:23:32;5.25;;;4.90;;
37107;SDS011;23019;49.300;6.846;2022-08-19T00:25:34;5.28;;;4.97;;
37107;SDS011;23019;49.300;6.846;2022-08-19T00:27:36;5.65;;;5.35;;
37107;SDS011;23019;49.300;6.846;2022-08-19T00:29:40;5.43;;;5.00;;
37107;SDS011;23019;49.300;6.846;2022-08-19T00:31:41;5.15;;;4.85;;
37107;SDS011;23019;49.300;6.846;2022-08-19T00:33:43;5.28;;;4.97;;
37107;SDS011;23019;49.300;6.846;2022-08-19T00:35:44;6.20;;;4.93;;
37107;SDS011;23019;49.300;6.846;2022-08-19T00:37:44;5.70;;;5.40;;
37107;SDS011;23019;49.300;6.846;2022-08-19T00:39:47;5.38;;;5.05;;
37107;SDS011;23019;49.300;6.846;2022-08-19T00:41:48;4.93;;;4.70;;
37107;SDS011;23019;49.300;6.846;2022-08-19T00:44:00;5.43;;;5.13;;
37107;SDS011;23019;49.300;6.846;2022-08-19T00:46:06;5.15;;;4.85;;
37107;SDS011;23019;49.300;6.846;2022-08-19T00:48:08;5.97;;;5.57;;
37107;SDS011;23019;49.300;6.846;2022-08-19T00:50:09;5.38;;;4.97;;
37107;SDS011;23019;49.300;6.846;2022-08-19T00:52:14;5.68;;;5.18;;
37107;SDS011;23019;49.300;6.846;2022-08-19T00:54:16;6.35;;;5.80;;
37107;SDS011;23019;49.300;6.846;2022-08-19T00:56:18;5.38;;;5.07;;
37107;SDS011;23019;49.300;6.846;2022-08-19T00:58:19;6.20;;;5.70;;
37107;SDS011;23019;49.300;6.846;2022-08-19T01:00:24;5.75;;;5.38;;
37107;SDS011;23019;49.300;6.846;2022-08-19T01:02:27;6.25;;;5.72;;
37107;SDS011;23019;49.300;6.846;2022-08-19T01:04:29;6.05;;;5.65;;
37107;SDS011;23019;49.300;6.846;2022-08-19T01:06:30;5.60;;;5.30;;
37107;SDS011;23019;49.300;6.846;2022-08-19T01:08:33;5.65;;;5.35;;
37107;SDS011;23019;49.300;6.846;2022-08-19T01:10:41;6.68;;;6.28;;
37107;SDS011;23019;49.300;6.846;2022-08-19T01:12:46;5.75;;;5.35;;
37107;SDS011;23019;49.300;6.846;2022-08-19T01:14:47;5.43;;;5.13;;
37107;SDS011;23019;49.300;6.846;2022-08-19T01:16:49;6.38;;;5.90;;
37107;SDS011;23019;49.300;6.846;2022-08-19T01:18:54;6.57;;;6.28;;
37107;SDS011;23019;49.300;6.846;2022-08-19T01:20:58;6.22;;;5.82;;
37107;SDS011;23019;49.300;6.846;2022-08-19T01:23:05;6.47;;;5.95;;
37107;SDS011;23019;49.300;6.846;2022-08-19T01:25:06;6.50;;;6.20;;
37107;SDS011;23019;49.300;6.846;2022-08-19T01:27:07;5.50;;;5.20;;
37107;SDS011;23019;49.300;6.846;2022-08-19T01:29:09;5.93;;;5.60;;
37107;SDS011;23019;49.300;6.846;2022-08-19T01:31:13;5.88;;;5.50;;
37107;SDS011;23019;49.300;6.846;2022-08-19T01:33:16;6.63;;;6.18;;
37107;SDS011;23019;49.300;6.846;2022-08-19T01:35:19;6.07;;;5.53;;
37107;SDS011;23019;49.300;6.846;2022-08-19T01:37:21;6.55;;;5.97;;
37107;SDS011;23019;49.300;6.846;2022-08-19T01:39:22;5.97;;;5.57;;
37107;SDS011;23019;49.300;6.846;2022-08-19T01:41:24;5.53;;;5.22;;
37107;SDS011;23019;49.300;6.846;2022-08-19T01:43:25;5.97;;;5.57;;
37107;SDS011;23019;49.300;6.846;2022-08-19T01:45:27;5.18;;;4.80;;
37107;SDS011;23019;49.300;6.846;2022-08-19T01:47:29;5.85;;;5.53;;
37107;SDS011;23019;49.300;6.846;2022-08-19T01:49:30;5.82;;;5.43;;
37107;SDS011;23019;49.300;6.846;2022-08-19T01:51:31;6.22;;;5.82;;
37107;SDS011;23019;49.300;6.846;2022-08-19T01:53:32;6.43;;;6.03;;
37107;SDS011;23019;49.300;6.846;2022-08-19T01:55:34;6.05;;;5.75;;
37107;SDS011;23019;49.300;6.846;2022-08-19T01:57:37;6.75;;;6.22;;
37107;SDS011;23019;49.300;6.846;2022-08-19T01:59:41;6.53;;;6.03;;
37107;SDS011;23019;49.300;6.846;2022-08-19T02:01:44;7.03;;;6.53;;
37107;SDS011;23019;49.300;6.846;2022-08-19T02:03:45;6.45;;;6.00;;
37107;SDS011;23019;49.300;6.846;2022-08-19T02:05:46;6.40;;;6.00;;
37107;SDS011;23019;49.300;6.846;2022-08-19T02:07:47;5.78;;;5.47;;
37107;SDS011;23019;49.300;6.846;2022-08-19T02:09:48;6.15;;;5.78;;
37107;SDS011;23019;49.300;6.846;2022-08-19T02:11:48;5.90;;;5.60;;
37107;SDS011;23019;49.300;6.846;2022-08-19T02:13:49;5.90;;;5.60;;
37107;SDS011;23019;49.300;6.846;2022-08-19T02:15:50;5.93;;;5.63;;
37107;SDS011;23019;49.300;6.846;2022-08-19T02:17:51;5.38;;;5.10;;
37107;SDS011;23019;49.300;6.846;2022-08-19T02:19:51;5.97;;;5.68;;
37107;SDS011;23019;49.300;6.846;2022-08-19T02:21:52;6.78;;;6.22;;
37107;SDS011;23019;49.300;6.846;2022-08-19T02:23:53;6.50;;;5.90;;
37107;SDS011;23019;49.300;6.846;2022-08-19T02:25:55;6.43;;;5.93;;
37107;SDS011;23019;49.300;6.846;2022-08-19T02:27:55;6.38;;;5.88;;
37107;SDS011;23019;49.300;6.846;2022-08-19T02:29:56;6.40;;;5.88;;
37107;SDS011;23019;49.300;6.846;2022-08-19T02:31:58;5.57;;;5.20;;
37107;SDS011;23019;49.300;6.846;2022-08-19T02:33:59;5.90;;;5.60;;
37107;SDS011;23019;49.300;6.846;2022-08-19T02:36:02;6.65;;;6.03;;
37107;SDS011;23019;49.300;6.846;2022-08-19T02:38:04;6.47;;;5.97;;
37107;SDS011;23019;49.300;6.846;2022-08-19T02:40:23;6.00;;;5.47;;
37107;SDS011;23019;49.300;6.846;2022-08-19T02:42:24;6.80;;;6.20;;
37107;SDS011;23019;49.300;6.846;2022-08-19T02:44:25;6.18;;;5.78;;
37107;SDS011;23019;49.300;6.846;2022-08-19T02:46:27;5.80;;;5.32;;
37107;SDS011;23019;49.300;6.846;2022-08-19T02:48:29;5.80;;;5.50;;
37107;SDS011;23019;49.300;6.846;2022-08-19T02:50:32;5.57;;;5.22;;
37107;SDS011;23019;49.300;6.846;2022-08-19T02:52:34;6.28;;;5.47;;
37107;SDS011;23019;49.300;6.846;2022-08-19T02:54:34;5.80;;;5.50;;
37107;SDS011;23019;49.300;6.846;2022-08-19T02:56:36;5.82;;;5.50;;
37107;SDS011;23019;49.300;6.846;2022-08-19T02:58:37;5.97;;;5.57;;
37107;SDS011;23019;49.300;6.846;2022-08-19T03:00:55;6.05;;;5.75;;
37107;SDS011;23019;49.300;6.846;2022-08-19T03:02:57;6.18;;;5.75;;
37107;SDS011;23019;49.300;6.846;2022-08-19T03:05:02;5.60;;;5.30;;
37107;SDS011;23019;49.300;6.846;2022-08-19T03:07:03;5.93;;;5.63;;
37107;SDS011;23019;49.300;6.846;2022-08-19T03:09:04;5.25;;;4.95;;
37107;SDS011;23019;49.300;6.846;2022-08-19T03:11:04;5.70;;;5.40;;
37107;SDS011;23019;49.300;6.846;2022-08-19T03:13:05;6.35;;;5.78;;
37107;SDS011;23019;49.300;6.846;2022-08-19T03:15:06;5.93;;;5.47;;
37107;SDS011;23019;49.300;6.846;2022-08-19T03:17:08;6.13;;;5.65;;
37107;SDS011;23019;49.300;6.846;2022-08-19T03:19:09;6.22;;;5.72;;
37107;SDS011;23019;49.300;6.846;2022-08-19T03:21:14;6.10;;;5.60;;
37107;SDS011;23019;49.300;6.846;2022-08-19T03:23:18;6.03;;;5.68;;
37107;SDS011;23019;49.300;6.846;2022-08-19T03:25:19;5.45;;;5.05;;
37107;SDS011;23019;49.300;6.846;2022-08-19T03:27:19;5.60;;;5.30;;
37107;SDS011;23019;49.300;6.846;2022-08-19T03:29:20;5.43;;;5.13;;
37107;SDS011;23019;49.300;6.846;2022-08-19T03:31:21;5.68;;;5.32;;
37107;SDS011;23019;49.300;6.846;2022-08-19T03:33:23;6.22;;;5.82;;
37107;SDS011;23019;49.300;6.846;2022-08-19T03:35:25;6.10;;;5.60;;
37107;SDS011;23019;49.300;6.846;2022-08-19T03:37:26;6.63;;;6.07;;
37107;SDS011;23019;49.300;6.846;2022-08-19T03:39:27;5.68;;;5.28;;
37107;SDS011;23019;49.300;6.846;2022-08-19T03:41:29;5.88;;;5.57;;
37107;SDS011;23019;49.300;6.846;2022-08-19T03:43:33;5.70;;;5.32;;
37107;SDS011;23019;49.300;6.846;2022-08-19T03:45:37;5.60;;;5.28;;
37107;SDS011;23019;49.300;6.846;2022-08-19T03:47:38;5.70;;;5.30;;
37107;SDS011;23019;49.300;6.846;2022-08-19T03:49:39;5.60;;;5.25;;
37107;SDS011;23019;49.300;6.846;2022-08-19T03:51:41;5.90;;;5.43;;
37107;SDS011;23019;49.300;6.846;2022-08-19T03:53:42;6.10;;;5.60;;
37107;SDS011;23019;49.300;6.846;2022-08-19T03:55:43;5.80;;;5.45;;
37107;SDS011;23019;49.300;6.846;2022-08-19T03:57:44;5.72;;;5.43;;
37107;SDS011;23019;49.300;6.846;2022-08-19T03:59:45;5.88;;;5.47;;
37107;SDS011;23019;49.300;6.846;2022-08-19T04:01:46;5.72;;;5.43;;
37107;SDS011;23019;49.300;6.846;2022-08-19T04:03:47;5.47;;;5.18;;
37107;SDS011;23019;49.300;6.846;2022-08-19T04:05:49;5.97;;;5.68;;
37107;SDS011;23019;49.300;6.846;2022-08-19T04:07:49;5.90;;;5.50;;
37107;SDS011;23019;49.300;6.846;2022-08-19T04:09:50;5.97;;;5.68;;
37107;SDS011;23019;49.300;6.846;2022-08-19T04:11:54;5.63;;;5.32;;
37107;SDS011;23019;49.300;6.846;2022-08-19T04:13:56;5.40;;;5.07;;
37107;SDS011;23019;49.300;6.846;2022-08-19T04:15:57;6.25;;;5.80;;
37107;SDS011;23019;49.300;6.846;2022-08-19T04:17:57;6.70;;;6.20;;
37107;SDS011;23019;49.300;6.846;2022-08-19T04:19:58;5.50;;;5.00;;
37107;SDS011;23019;49.300;6.846;2022-08-19T04:21:59;6.15;;;5.65;;
37107;SDS011;23019;49.300;6.846;2022-08-19T04:24:01;5.40;;;5.00;;
37107;SDS011;23019;49.300;6.846;2022-08-19T04:26:02;5.30;;;5.10;;
37107;SDS011;23019;49.300;6.846;2022-08-19T04:28:03;5.55;;;5.20;;
37107;SDS011;23019;49.300;6.846;2022-08-19T04:30:04;6.85;;;6.25;;
37107;SDS011;23019;49.300;6.846;2022-08-19T04:32:05;5.90;;;5.50;;
37107;SDS011;23019;49.300;6.846;2022-08-19T04:34:07;6.18;;;5.82;;
37107;SDS011;23019;49.300;6.846;2022-08-19T04:36:44;5.35;;;4.95;;
37107;SDS011;23019;49.300;6.846;2022-08-19T04:38:37;5.50;;;5.00;;
37107;SDS011;23019;49.300;6.846;2022-08-19T04:40:42;5.40;;;5.10;;
37107;SDS011;23019;49.300;6.846;2022-08-19T04:43:06;5.93;;;5.63;;
37107;SDS011;23019;49.300;6.846;2022-08-19T04:45:10;5.88;;;5.57;;
37107;SDS011;23019;49.300;6.846;2022-08-19T04:47:13;4.90;;;4.60;;
37107;SDS011;23019;49.300;6.846;2022-08-19T04:49:14;5.63;;;5.32;;
37107;SDS011;23019;49.300;6.846;2022-08-19T04:51:16;4.88;;;4.68;;
37107;SDS011;23019;49.300;6.846;2022-08-19T04:53:17;6.20;;;4.63;;
37107;SDS011;23019;49.300;6.846;2022-08-19T04:55:18;4.38;;;4.07;;
37107;SDS011;23019;49.300;6.846;2022-08-19T04:57:18;4.93;;;4.63;;
37107;SDS011;23019;49.300;6.846;2022-08-19T04:59:20;4.75;;;4.55;;
37107;SDS011;23019;49.300;6.846;2022-08-19T05:01:22;5.10;;;4.80;;
37107;SDS011;23019;49.300;6.846;2022-08-19T05:03:26;4.57;;;4.28;;
37107;SDS011;23019;49.300;6.846;2022-08-19T05:05:27;4.05;;;3.85;;
37107;SDS011;23019;49.300;6.846;2022-08-19T05:07:27;4.40;;;4.20;;
37107;SDS011;23019;49.300;6.846;2022-08-19T05:09:29;4.57;;;4.18;;
37107;SDS011;23019;49.300;6.846;2022-08-19T05:11:31;4.10;;;3.90;;
37107;SDS011;23019;49.300;6.846;2022-08-19T05:13:34;4.85;;;3.97;;
37107;SDS011;23019;49.300;6.846;2022-08-19T05:15:34;4.20;;;3.90;;
37107;SDS011;23019;49.300;6.846;2022-08-19T05:17:35;6.85;;;3.58;;
37107;SDS011;23019;49.300;6.846;2022-08-19T05:19:36;3.78;;;3.58;;
37107;SDS011;23019;49.300;6.846;2022-08-19T05:21:55;4.28;;;3.97;;
37107;SDS011;23019;49.300;6.846;2022-08-19T05:24:15;3.70;;;3.50;;
37107;SDS011;23019;49.300;6.846;2022-08-19T05:26:20;3.83;;;3.63;;
37107;SDS011;23019;49.300;6.846;2022-08-19T05:28:20;4.03;;;3.80;;
37107;SDS011;23019;49.300;6.846;2022-08-19T05:30:21;3.28;;;2.95;;
37107;SDS011;23019;49.300;6.846;2022-08-19T05:32:22;3.13;;;2.92;;
37107;SDS011;23019;49.300;6.846;2022-08-19T05:34:23;3.55;;;3.13;;
37107;SDS011;23019;49.300;6.846;2022-08-19T05:36:26;4.00;;;3.70;;
37107;SDS011;23019;49.300;6.846;2022-08-19T05:38:27;3.85;;;3.65;;
37107;SDS011;23019;49.300;6.846;2022-08-19T05:40:29;3.55;;;3.35;;
37107;SDS011;23019;49.300;6.846;2022-08-19T05:42:30;4.00;;;3.80;;
37107;SDS011;23019;49.300;6.846;2022-08-19T05:44:32;3.72;;;3.53;;
37107;SDS011;23019;49.300;6.846;2022-08-19T05:46:38;3.42;;;3.25;;
37107;SDS011;23019;49.300;6.846;2022-08-19T05:48:39;4.25;;;3.85;;
37107;SDS011;23019;49.300;6.846;2022-08-19T05:50:40;4.53;;;4.18;;
37107;SDS011;23019;49.300;6.846;2022-08-19T05:52:41;4.93;;;3.85;;
37107;SDS011;23019;49.300;6.846;2022-08-19T05:54:42;3.83;;;3.50;;
37107;SDS011;23019;49.300;6.846;2022-08-19T05:56:43;4.22;;;3.80;;
37107;SDS011;23019;49.300;6.846;2022-08-19T05:58:47;4.20;;;3.90;;
37107;SDS011;23019;49.300;6.846;2022-08-19T06:00:48;4.25;;;3.17;;
37107;SDS011;23019;49.300;6.846;2022-08-19T06:02:48;4.90;;;3.20;;
37107;SDS011;23019;49.300;6.846;2022-08-19T06:04:50;4.07;;;3.13;;
37107;SDS011;23019;49.300;6.846;2022-08-19T06:06:52;4.07;;;3.15;;
37107;SDS011;23019;49.300;6.846;2022-08-19T06:08:53;3.60;;;3.40;;
37107;SDS011;23019;49.300;6.846;2022-08-19T06:10:54;4.18;;;3.53;;
37107;SDS011;23019;49.300;6.846;2022-08-19T06:12:55;4.05;;;3.40;;
37107;SDS011;23019;49.300;6.846;2022-08-19T06:14:56;3.38;;;2.97;;
37107;SDS011;23019;49.300;6.846;2022-08-19T06:16:57;3.55;;;3.25;;
37107;SDS011;23019;49.300;6.846;2022-08-19T06:19:00;3.25;;;3.10;;
37107;SDS011;23019;49.300;6.846;2022-08-19T06:21:04;3.70;;;3.40;;
37107;SDS011;23019;49.300;6.846;2022-08-19T06:23:05;3.70;;;2.80;;
37107;SDS011;23019;49.300;6.846;2022-08-19T06:25:06;3.40;;;3.30;;
37107;SDS011;23019;49.300;6.846;2022-08-19T06:27:09;3.13;;;2.95;;
37107;SDS011;23019;49.300;6.846;2022-08-19T06:29:10;3.30;;;3.15;;
37107;SDS011;23019;49.300;6.846;2022-08-19T06:31:13;3.45;;;3.28;;
37107;SDS011;23019;49.300;6.846;2022-08-19T06:33:16;3.65;;;3.45;;
37107;SDS011;23019;49.300;6.846;2022-08-19T06:35:16;3.25;;;3.05;;
37107;SDS011;23019;49.300;6.846;2022-08-19T06:37:17;3.10;;;2.90;;
37107;SDS011;23019;49.300;6.846;2022-08-19T06:39:29;2.80;;;2.70;;
37107;SDS011;23019;49.300;6.846;2022-08-19T06:41:38;5.10;;;2.95;;
37107;SDS011;23019;49.300;6.846;2022-08-19T06:43:43;3.08;;;2.88;;
37107;SDS011;23019;49.300;6.846;2022-08-19T06:45:44;3.03;;;2.83;;
37107;SDS011;23019;49.300;6.846;2022-08-19T06:47:44;3.70;;;2.95;;
37107;SDS011;23019;49.300;6.846;2022-08-19T06:49:48;3.38;;;3.17;;
37107;SDS011;23019;49.300;6.846;2022-08-19T06:51:49;3.50;;;3.30;;
37107;SDS011;23019;49.300;6.846;2022-08-19T06:53:51;3.70;;;3.50;;
37107;SDS011;23019;49.300;6.846;2022-08-19T06:55:53;5.88;;;2.95;;
37107;SDS011;23019;49.300;6.846;2022-08-19T06:58:03;2.90;;;2.70;;
37107;SDS011;23019;49.300;6.846;2022-08-19T07:00:05;3.00;;;2.90;;
37107;SDS011;23019;49.300;6.846;2022-08-19T07:02:10;3.45;;;3.25;;
37107;SDS011;23019;49.300;6.846;2022-08-19T07:04:12;3.40;;;3.20;;
37107;SDS011;23019;49.300;6.846;2022-08-19T07:06:16;3.55;;;3.35;;
37107;SDS011;23019;49.300;6.846;2022-08-19T07:08:17;3.20;;;3.00;;
37107;SDS011;23019;49.300;6.846;2022-08-19T07:10:18;4.28;;;2.90;;
37107;SDS011;23019;49.300;6.846;2022-08-19T07:12:19;2.55;;;2.45;;
37107;SDS011;23019;49.300;6.846;2022-08-19T07:14:21;3.33;;;3.13;;
37107;SDS011;23019;49.300;6.846;2022-08-19T07:16:25;2.75;;;2.55;;
37107;SDS011;23019;49.300;6.846;2022-08-19T07:18:27;3.17;;;2.97;;
37107;SDS011;23019;49.300;6.846;2022-08-19T07:20:28;2.47;;;2.38;;
37107;SDS011;23019;49.300;6.846;2022-08-19T07:22:28;3.10;;;2.90;;
37107;SDS011;23019;49.300;6.846;2022-08-19T07:24:29;3.03;;;2.85;;
37107;SDS011;23019;49.300;6.846;2022-08-19T07:26:32;3.53;;;3.22;;
37107;SDS011;23019;49.300;6.846;2022-08-19T07:30:39;2.83;;;2.63;;
37107;SDS011;23019;49.300;6.846;2022-08-19T07:32:40;3.20;;;3.00;;
37107;SDS011;23019;49.300;6.846;2022-08-19T07:34:42;2.78;;;2.65;;
37107;SDS011;23019;49.300;6.846;2022-08-19T07:36:43;2.50;;;2.40;;
37107;SDS011;23019;49.300;6.846;2022-08-19T07:38:45;3.08;;;2.88;;
37107;SDS011;23019;49.300;6.846;2022-08-19T07:40:48;2.78;;;2.63;;
37107;SDS011;23019;49.300;6.846;2022-08-19T07:42:49;2.45;;;2.35;;
37107;SDS011;23019;49.300;6.846;2022-08-19T07:44:49;3.13;;;2.55;;
37107;SDS011;23019;49.300;6.846;2022-08-19T07:46:52;3.03;;;2.83;;
37107;SDS011;23019;49.300;6.846;2022-08-19T07:48:55;4.20;;;2.65;;
37107;SDS011;23019;49.300;6.846;2022-08-19T07:50:56;2.20;;;2.08;;
37107;SDS011;23019;49.300;6.846;2022-08-19T07:53:01;3.83;;;2.85;;
37107;SDS011;23019;49.300;6.846;2022-08-19T07:55:03;3.33;;;3.13;;
37107;SDS011;23019;49.300;6.846;2022-08-19T07:57:05;2.58;;;2.47;;
37107;SDS011;23019;49.300;6.846;2022-08-19T07:59:06;3.70;;;2.83;;
37107;SDS011;23019;49.300;6.846;2022-08-19T08:01:10;2.53;;;2.33;;
37107;SDS011;23019;49.300;6.846;2022-08-19T08:03:13;4.15;;;2.85;;
37107;SDS011;23019;49.300;6.846;2022-08-19T08:05:16;2.50;;;2.40;;
37107;SDS011;23019;49.300;6.846;2022-08-19T08:07:35;3.80;;;2.80;;
37107;SDS011;23019;49.300;6.846;2022-08-19T08:09:54;2.75;;;2.28;;
37107;SDS011;23019;49.300;6.846;2022-08-19T08:11:59;2.50;;;2.40;;
37107;SDS011;23019;49.300;6.846;2022-08-19T08:14:03;3.10;;;2.80;;
37107;SDS011;23019;49.300;6.846;2022-08-19T08:16:04;3.00;;;2.80;;
37107;SDS011;23019;49.300;6.846;2022-08-19T08:18:07;2.67;;;2.22;;
37107;SDS011;23019;49.300;6.846;2022-08-19T08:20:07;2.83;;;2.63;;
37107;SDS011;23019;49.300;6.846;2022-08-19T08:22:10;3.15;;;2.95;;
37107;SDS011;23019;49.300;6.846;2022-08-19T08:24:31;2.65;;;2.45;;
37107;SDS011;23019;49.300;6.846;2022-08-19T08:26:33;2.60;;;2.47;;
37107;SDS011;23019;49.300;6.846;2022-08-19T08:28:34;2.53;;;2.42;;
37107;SDS011;23019;49.300;6.846;2022-08-19T08:30:35;2.45;;;2.28;;
37107;SDS011;23019;49.300;6.846;2022-08-19T08:32:37;2.60;;;2.40;;
37107;SDS011;23019;49.300;6.846;2022-08-19T08:34:39;6.82;;;2.92;;
37107;SDS011;23019;49.300;6.846;2022-08-19T08:36:41;2.97;;;2.63;;
37107;SDS011;23019;49.300;6.846;2022-08-19T08:38:44;2.33;;;2.22;;
37107;SDS011;23019;49.300;6.846;2022-08-19T08:40:47;2.50;;;2.30;;
37107;SDS011;23019;49.300;6.846;2022-08-19T08:42:57;2.55;;;2.30;;
37107;SDS011;23019;49.300;6.846;2022-08-19T08:45:18;2.47;;;2.28;;
37107;SDS011;23019;49.300;6.846;2022-08-19T08:47:20;2.90;;;2.70;;
37107;SDS011;23019;49.300;6.846;2022-08-19T08:54:33;2.38;;;2.25;;
37107;SDS011;23019;49.300;6.846;2022-08-19T08:56:39;3.50;;;2.30;;
37107;SDS011;23019;49.300;6.846;2022-08-19T08:58:46;2.13;;;2.03;;
37107;SDS011;23019;49.300;6.846;2022-08-19T09:00:54;2.30;;;2.20;;
37107;SDS011;23019;49.300;6.846;2022-08-19T09:02:55;2.47;;;2.30;;
37107;SDS011;23019;49.300;6.846;2022-08-19T09:04:57;2.33;;;2.22;;
37107;SDS011;23019;49.300;6.846;2022-08-19T09:07:04;2.55;;;1.80;;
37107;SDS011;23019;49.300;6.846;2022-08-19T09:09:34;2.38;;;2.20;;
37107;SDS011;23019;49.300;6.846;2022-08-19T09:16:08;2.25;;;2.05;;
37107;SDS011;23019;49.300;6.846;2022-08-19T09:18:14;2.40;;;2.30;;
37107;SDS011;23019;49.300;6.846;2022-08-19T09:20:20;2.05;;;1.95;;
37107;SDS011;23019;49.300;6.846;2022-08-19T09:22:23;2.38;;;2.28;;
37107;SDS011;23019;49.300;6.846;2022-08-19T09:24:24;1.90;;;1.80;;
37107;SDS011;23019;49.300;6.846;2022-08-19T09:26:25;1.77;;;1.67;;
37107;SDS011;23019;49.300;6.846;2022-08-19T09:28:26;2.30;;;2.20;;
37107;SDS011;23019;49.300;6.846;2022-08-19T09:30:32;2.50;;;2.20;;
37107;SDS011;23019;49.300;6.846;2022-08-19T09:32:34;2.28;;;2.08;;
37107;SDS011;23019;49.300;6.846;2022-08-19T09:34:35;2.17;;;2.08;;
37107;SDS011;23019;49.300;6.846;2022-08-19T09:36:36;2.03;;;1.92;;
37107;SDS011;23019;49.300;6.846;2022-08-19T09:38:39;1.95;;;1.85;;
37107;SDS011;23019;49.300;6.846;2022-08-19T09:40:41;9.85;;;2.78;;
37107;SDS011;23019;49.300;6.846;2022-08-19T09:42:43;3.22;;;1.92;;
37107;SDS011;23019;49.300;6.846;2022-08-19T09:44:46;1.95;;;1.85;;
37107;SDS011;23019;49.300;6.846;2022-08-19T09:46:47;1.92;;;1.83;;
37107;SDS011;23019;49.300;6.846;2022-08-19T09:48:48;2.10;;;2.00;;
37107;SDS011;23019;49.300;6.846;2022-08-19T09:50:50;2.22;;;2.13;;
37107;SDS011;23019;49.300;6.846;2022-08-19T09:52:51;2.15;;;2.05;;
37107;SDS011;23019;49.300;6.846;2022-08-19T09:54:56;2.00;;;1.90;;
37107;SDS011;23019;49.300;6.846;2022-08-19T09:57:00;2.15;;;2.05;;
37107;SDS011;23019;49.300;6.846;2022-08-19T09:59:02;2.08;;;1.98;;
37107;SDS011;23019;49.300;6.846;2022-08-19T10:01:03;2.08;;;1.98;;
37107;SDS011;23019;49.300;6.846;2022-08-19T10:03:05;2.10;;;1.92;;
37107;SDS011;23019;49.300;6.846;2022-08-19T10:05:06;1.83;;;1.73;;
37107;SDS011;23019;49.300;6.846;2022-08-19T10:07:26;2.20;;;2.10;;
37107;SDS011;23019;49.300;6.846;2022-08-19T10:09:29;2.35;;;2.10;;
37107;SDS011;23019;49.300;6.846;2022-08-19T10:11:29;1.85;;;1.75;;
37107;SDS011;23019;49.300;6.846;2022-08-19T10:13:31;1.98;;;1.88;;
37107;SDS011;23019;49.300;6.846;2022-08-19T10:15:34;2.08;;;1.98;;
37107;SDS011;23019;49.300;6.846;2022-08-19T10:17:35;1.85;;;1.75;;
37107;SDS011;23019;49.300;6.846;2022-08-19T10:19:35;2.00;;;1.90;;
37107;SDS011;23019;49.300;6.846;2022-08-19T10:21:36;1.85;;;1.75;;
37107;SDS011;23019;49.300;6.846;2022-08-19T10:23:37;1.67;;;1.58;;
37107;SDS011;23019;49.300;6.846;2022-08-19T10:25:39;1.98;;;1.88;;
37107;SDS011;23019;49.300;6.846;2022-08-19T10:27:40;2.28;;;2.17;;
37107;SDS011;23019;49.300;6.846;2022-08-19T10:29:41;1.80;;;1.70;;
37107;SDS011;23019;49.300;6.846;2022-08-19T10:31:42;2.03;;;1.92;;
37107;SDS011;23019;49.300;6.846;2022-08-19T10:33:42;2.10;;;2.00;;
37107;SDS011;23019;49.300;6.846;2022-08-19T10:35:43;1.70;;;1.60;;
37107;SDS011;23019;49.300;6.846;2022-08-19T10:37:46;1.73;;;1.63;;
37107;SDS011;23019;49.300;6.846;2022-08-19T10:39:47;1.85;;;1.75;;
37107;SDS011;23019;49.300;6.846;2022-08-19T10:41:47;2.00;;;1.90;;
37107;SDS011;23019;49.300;6.846;2022-08-19T10:43:52;2.08;;;1.98;;
37107;SDS011;23019;49.300;6.846;2022-08-19T10:45:54;1.40;;;1.30;;
37107;SDS011;23019;49.300;6.846;2022-08-19T10:47:56;1.70;;;1.60;;
37107;SDS011;23019;49.300;6.846;2022-08-19T10:49:57;1.90;;;1.80;;
37107;SDS011;23019;49.300;6.846;2022-08-19T10:52:16;1.90;;;1.80;;
37107;SDS011;23019;49.300;6.846;2022-08-19T10:54:35;1.77;;;1.67;;
37107;SDS011;23019;49.300;6.846;2022-08-19T10:56:54;1.52;;;1.42;;
37107;SDS011;23019;49.300;6.846;2022-08-19T10:58:55;1.83;;;1.73;;
37107;SDS011;23019;49.300;6.846;2022-08-19T11:00:58;1.65;;;1.55;;
37107;SDS011;23019;49.300;6.846;2022-08-19T11:02:59;1.60;;;1.50;;
37107;SDS011;23019;49.300;6.846;2022-08-19T11:04:59;1.67;;;1.58;;
37107;SDS011;23019;49.300;6.846;2022-08-19T11:07:00;1.77;;;1.67;;
37107;SDS011;23019;49.300;6.846;2022-08-19T11:09:05;1.50;;;1.40;;
37107;SDS011;23019;49.300;6.846;2022-08-19T11:11:06;1.73;;;1.63;;
37107;SDS011;23019;49.300;6.846;2022-08-19T11:13:07;1.85;;;1.75;;
37107;SDS011;23019;49.300;6.846;2022-08-19T11:15:08;1.25;;;1.25;;
37107;SDS011;23019;49.300;6.846;2022-08-19T11:17:11;1.20;;;1.20;;
37107;SDS011;23019;49.300;6.846;2022-08-19T11:19:13;1.67;;;1.58;;
37107;SDS011;23019;49.300;6.846;2022-08-19T11:21:21;1.50;;;1.40;;
37107;SDS011;23019;49.300;6.846;2022-08-19T11:23:25;1.75;;;1.65;;
37107;SDS011;23019;49.300;6.846;2022-08-19T11:25:25;1.73;;;1.63;;
37107;SDS011;23019;49.300;6.846;2022-08-19T11:27:26;1.70;;;1.60;;
37107;SDS011;23019;49.300;6.846;2022-08-19T11:29:30;1.30;;;1.30;;
37107;SDS011;23019;49.300;6.846;2022-08-19T11:31:33;1.98;;;1.88;;
37107;SDS011;23019;49.300;6.846;2022-08-19T11:33:36;1.30;;;1.30;;
37107;SDS011;23019;49.300;6.846;2022-08-19T11:35:38;1.30;;;1.20;;
37107;SDS011;23019;49.300;6.846;2022-08-19T11:37:41;1.58;;;1.48;;
37107;SDS011;23019;49.300;6.846;2022-08-19T11:39:41;1.58;;;1.48;;
37107;SDS011;23019;49.300;6.846;2022-08-19T11:41:42;1.50;;;1.40;;
37107;SDS011;23019;49.300;6.846;2022-08-19T11:43:43;1.35;;;1.30;;
37107;SDS011;23019;49.300;6.846;2022-08-19T11:45:44;1.60;;;1.50;;
37107;SDS011;23019;49.300;6.846;2022-08-19T11:47:45;1.50;;;1.40;;
37107;SDS011;23019;49.300;6.846;2022-08-19T11:49:47;1.30;;;1.20;;
37107;SDS011;23019;49.300;6.846;2022-08-19T11:51:48;1.35;;;1.25;;
37107;SDS011;23019;49.300;6.846;2022-08-19T11:53:51;1.55;;;1.45;;
37107;SDS011;23019;49.300;6.846;2022-08-19T11:55:53;1.75;;;1.65;;
37107;SDS011;23019;49.300;6.846;2022-08-19T11:57:56;1.58;;;1.48;;
37107;SDS011;23019;49.300;6.846;2022-08-19T11:59:57;1.52;;;1.42;;
37107;SDS011;23019;49.300;6.846;2022-08-19T12:01:58;1.10;;;1.10;;
37107;SDS011;23019;49.300;6.846;2022-08-19T12:03:59;1.40;;;1.33;;
37107;SDS011;23019;49.300;6.846;2022-08-19T12:06:06;1.23;;;1.23;;
37107;SDS011;23019;49.300;6.846;2022-08-19T12:08:09;1.30;;;1.30;;
37107;SDS011;23019;49.300;6.846;2022-08-19T12:10:11;1.27;;;1.17;;
37107;SDS011;23019;49.300;6.846;2022-08-19T12:12:12;1.60;;;1.50;;
37107;SDS011;23019;49.300;6.846;2022-08-19T12:14:13;1.60;;;1.50;;
37107;SDS011;23019;49.300;6.846;2022-08-19T12:16:15;1.17;;;1.17;;
37107;SDS011;23019;49.300;6.846;2022-08-19T12:18:17;1.58;;;1.48;;
37107;SDS011;23019;49.300;6.846;2022-08-19T12:20:18;1.70;;;1.60;;
37107;SDS011;23019;49.300;6.846;2022-08-19T12:22:19;1.48;;;1.38;;
37107;SDS011;23019;49.300;6.846;2022-08-19T12:24:21;1.70;;;1.60;;
37107;SDS011;23019;49.300;6.846;2022-08-19T12:26:23;1.50;;;1.40;;
37107;SDS011;23019;49.300;6.846;2022-08-19T12:28:25;1.63;;;1.52;;
37107;SDS011;23019;49.300;6.846;2022-08-19T12:30:26;1.40;;;1.30;;
37107;SDS011;23019;49.300;6.846;2022-08-19T12:32:27;1.60;;;1.45;;